Time;durP1;ratioP1;P1;durP2;ratioP2;P2;SDS_P1;SDS_P2;PMS_P1;PMS_P2;Temp;Humidity;BMP_temperature;BMP_pressure;BME280_temperature;BME280_humidity;BME280_pressure;Samples;Min_cycle;Max_cycle;Signal;HPM_P1;HPM_P2
2023/03/07 00:00:57;;;;;;;9.52;2.70;;;4.70;99.90;;;;;;4970266;28;20129;-73
2023/03/07 00:03:22;;;;;;;7.50;2.83;;;4.70;99.90;;;;;;4987942;28;20176;-73
2023/03/07 00:05:48;;;;;;;9.43;2.00;;;4.70;99.90;;;;;;4988756;28;20109;-73
2023/03/07 00:08:13;;;;;;;6.85;2.28;;;4.70;99.90;;;;;;4987840;28;20038;-73
2023/03/07 00:10:39;;;;;;;6.45;1.60;;;4.70;99.90;;;;;;4986625;28;20042;-74
2023/03/07 00:13:05;;;;;;;7.88;1.95;;;4.70;99.90;;;;;;4987663;28;20491;-73
2023/03/07 00:15:30;;;;;;;6.82;1.60;;;4.80;99.90;;;;;;4988714;28;20041;-73
2023/03/07 00:17:57;;;;;;;4.60;1.70;;;4.70;99.90;;;;;;4986210;28;20120;-73
2023/03/07 00:20:22;;;;;;;3.88;1.60;;;4.80;99.90;;;;;;4987181;28;20045;-73
2023/03/07 00:22:48;;;;;;;6.95;1.90;;;4.80;99.90;;;;;;4987771;28;20383;-73
2023/03/07 00:25:14;;;;;;;10.32;2.53;;;4.80;99.90;;;;;;4987204;28;20045;-73
2023/03/07 00:27:40;;;;;;;6.57;2.15;;;4.80;99.90;;;;;;4988798;28;20045;-73
2023/03/07 00:30:06;;;;;;;9.50;1.48;;;4.80;99.90;;;;;;4983941;28;20038;-73
2023/03/07 00:32:32;;;;;;;6.70;2.25;;;4.80;99.90;;;;;;4987516;28;20141;-72
2023/03/07 00:34:59;;;;;;;8.57;2.42;;;4.80;99.90;;;;;;4969539;28;20125;-74
2023/03/07 00:37:25;;;;;;;6.72;2.17;;;4.80;99.90;;;;;;4987039;28;20075;-73
2023/03/07 00:39:50;;;;;;;8.45;2.40;;;4.70;99.90;;;;;;4986762;28;20038;-73
2023/03/07 00:42:16;;;;;;;9.45;1.67;;;4.80;99.90;;;;;;4987224;28;20113;-73
2023/03/07 00:44:42;;;;;;;6.65;2.33;;;4.80;99.90;;;;;;4986844;28;20417;-73
2023/03/07 00:47:07;;;;;;;9.18;2.10;;;4.80;99.90;;;;;;4986581;28;20038;-73
2023/03/07 00:49:33;;;;;;;8.10;2.55;;;4.80;99.90;;;;;;4986930;28;20498;-72
2023/03/07 00:51:58;;;;;;;4.95;2.40;;;4.80;99.90;;;;;;4987010;28;20042;-73
2023/03/07 00:54:24;;;;;;;9.77;2.50;;;4.80;99.90;;;;;;4986617;28;20811;-73
2023/03/07 00:56:50;;;;;;;8.82;2.72;;;4.90;99.90;;;;;;4986523;28;20049;-73
2023/03/07 00:59:16;;;;;;;10.43;2.40;;;4.90;99.90;;;;;;4986038;28;20074;-74
2023/03/07 01:01:41;;;;;;;6.95;2.13;;;4.90;99.90;;;;;;4986728;28;20062;-73
2023/03/07 01:04:07;;;;;;;16.55;3.28;;;4.90;99.90;;;;;;4986754;28;20508;-73
2023/03/07 01:06:33;;;;;;;9.48;2.50;;;5.00;99.90;;;;;;4987332;28;20057;-73
2023/03/07 01:09:03;;;;;;;18.02;3.20;;;5.00;99.90;;;;;;4987454;28;20513;-73
2023/03/07 01:11:32;;;;;;;8.55;2.45;;;5.00;99.90;;;;;;4969010;28;20037;-72
2023/03/07 01:13:59;;;;;;;4.88;1.30;;;5.10;99.90;;;;;;4986652;28;20041;-73
2023/03/07 01:16:33;;;;;;;8.07;1.77;;;5.10;99.90;;;;;;4986888;28;20041;-73
2023/03/07 01:19:01;;;;;;;7.85;2.40;;;5.10;99.90;;;;;;4969382;28;20569;-73
2023/03/07 01:21:28;;;;;;;5.55;1.27;;;5.10;99.90;;;;;;4969040;28;20029;-72
2023/03/07 01:23:53;;;;;;;4.72;1.50;;;5.00;99.90;;;;;;4968942;28;20114;-72
2023/03/07 01:26:22;;;;;;;6.13;1.55;;;4.90;99.90;;;;;;4986474;28;20121;-73
2023/03/07 01:28:50;;;;;;;7.88;1.80;;;4.90;99.90;;;;;;4986634;28;20049;-73
2023/03/07 01:31:16;;;;;;;4.55;1.67;;;4.90;99.90;;;;;;4984760;28;20018;-72
2023/03/07 01:33:42;;;;;;;3.22;0.95;;;4.80;99.90;;;;;;4985925;28;20033;-73
2023/03/07 01:36:29;;;;;;;6.93;1.13;;;4.80;99.90;;;;;;4967794;28;20109;-73
2023/03/07 01:39:06;;;;;;;4.93;1.65;;;4.70;99.90;;;;;;4988840;28;20045;-73
2023/03/07 01:41:33;;;;;;;6.60;1.15;;;4.70;99.90;;;;;;4998995;28;20041;-73
2023/03/07 01:44:04;;;;;;;7.38;1.02;;;4.60;99.90;;;;;;5005359;28;20022;-73
2023/03/07 01:46:41;;;;;;;6.55;1.52;;;4.60;99.90;;;;;;4995588;28;20389;-72
2023/03/07 01:49:10;;;;;;;5.50;0.82;;;4.60;99.90;;;;;;4982397;28;20450;-73
2023/03/07 01:51:38;;;;;;;8.60;1.23;;;4.60;99.90;;;;;;4984760;28;20034;-73
2023/03/07 01:54:04;;;;;;;8.85;1.98;;;4.50;99.90;;;;;;4981845;28;20652;-73
2023/03/07 01:56:30;;;;;;;4.43;0.98;;;4.50;99.90;;;;;;4985399;28;20068;-73
2023/03/07 01:58:56;;;;;;;8.57;1.55;;;4.50;99.90;;;;;;4985761;28;20596;-73
2023/03/07 02:01:24;;;;;;;4.22;1.42;;;4.50;99.90;;;;;;4985564;28;20041;-73
2023/03/07 02:03:57;;;;;;;4.55;1.45;;;4.50;99.90;;;;;;4986120;28;20027;-72
2023/03/07 02:06:26;;;;;;;4.25;0.88;;;4.50;99.90;;;;;;4986126;28;20765;-73
2023/03/07 02:08:53;;;;;;;9.43;1.30;;;4.50;99.90;;;;;;4989651;28;20114;-72
2023/03/07 02:11:19;;;;;;;12.35;1.75;;;4.50;99.90;;;;;;4985561;28;20034;-74
2023/03/07 02:13:47;;;;;;;6.38;0.90;;;4.50;99.90;;;;;;4968766;28;20376;-73
2023/03/07 02:16:13;;;;;;;5.90;0.98;;;4.50;99.90;;;;;;4989698;28;20049;-73
2023/03/07 02:18:46;;;;;;;7.95;1.15;;;4.60;99.90;;;;;;4986033;28;20047;-73
2023/03/07 02:21:48;;;;;;;10.57;1.08;;;4.60;99.90;;;;;;4985806;28;20046;-73
2023/03/07 02:24:39;;;;;;;7.05;1.52;;;4.60;99.90;;;;;;4982395;28;20038;-73
2023/03/07 02:27:05;;;;;;;7.32;1.10;;;4.60;99.90;;;;;;4948917;28;20565;-73
2023/03/07 02:29:31;;;;;;;5.10;1.60;;;4.60;99.90;;;;;;4985740;28;20034;-72
2023/03/07 02:31:56;;;;;;;5.13;1.02;;;4.60;99.90;;;;;;4968443;28;20380;-73
2023/03/07 02:34:23;;;;;;;15.32;1.52;;;4.60;99.90;;;;;;4988068;28;20038;-73
2023/03/07 02:36:57;;;;;;;6.65;1.20;;;4.60;99.90;;;;;;4989452;28;20410;-72
2023/03/07 02:39:24;;;;;;;7.78;1.10;;;4.70;99.90;;;;;;4989538;28;20038;-73
2023/03/07 02:41:53;;;;;;;8.50;1.83;;;4.70;99.90;;;;;;4989372;28;20372;-73
2023/03/07 02:44:20;;;;;;;7.05;0.98;;;4.70;99.90;;;;;;4989019;28;20514;-73
2023/03/07 02:46:46;;;;;;;5.72;0.82;;;4.70;99.90;;;;;;4989317;28;20031;-74
2023/03/07 02:49:12;;;;;;;8.68;1.17;;;4.70;99.90;;;;;;4977231;28;20118;-73
2023/03/07 02:51:37;;;;;;;5.68;1.20;;;4.70;99.90;;;;;;4974757;28;20109;-73
2023/03/07 02:54:03;;;;;;;7.72;1.45;;;4.70;99.90;;;;;;4989779;28;20038;-73
2023/03/07 02:56:29;;;;;;;9.52;1.17;;;4.70;99.90;;;;;;4989179;28;20718;-73
2023/03/07 02:58:55;;;;;;;7.47;1.50;;;4.70;99.90;;;;;;4971841;28;20031;-73
2023/03/07 03:01:21;;;;;;;4.07;1.08;;;4.70;99.90;;;;;;4989136;28;20038;-73
2023/03/07 03:03:46;;;;;;;4.65;1.00;;;4.70;99.90;;;;;;4989024;28;20037;-73
2023/03/07 03:06:12;;;;;;;4.32;0.50;;;4.70;99.90;;;;;;4971484;28;20033;-74
2023/03/07 03:08:38;;;;;;;3.65;0.88;;;4.70;99.90;;;;;;4989005;28;20030;-73
2023/03/07 03:11:03;;;;;;;9.13;2.05;;;4.70;99.90;;;;;;4989195;28;20030;-73
2023/03/07 03:13:29;;;;;;;5.78;0.98;;;4.70;99.90;;;;;;4973811;28;20448;-73
2023/03/07 03:15:55;;;;;;;5.00;0.75;;;4.70;99.90;;;;;;4991481;28;20034;-72
2023/03/07 03:18:22;;;;;;;8.73;1.67;;;4.70;99.90;;;;;;4988466;28;20046;-73
2023/03/07 03:20:47;;;;;;;5.35;1.17;;;4.70;99.90;;;;;;4974093;28;20549;-72
2023/03/07 03:23:13;;;;;;;7.70;0.98;;;4.70;99.90;;;;;;4988543;28;20034;-73
2023/03/07 03:25:38;;;;;;;6.75;1.45;;;4.70;99.90;;;;;;4988676;28;20509;-73
2023/03/07 03:28:04;;;;;;;9.20;1.27;;;4.70;99.90;;;;;;4989021;28;20093;-74
2023/03/07 03:30:31;;;;;;;8.43;1.48;;;4.70;99.90;;;;;;4988479;28;20065;-72
2023/03/07 03:32:57;;;;;;;9.55;1.17;;;4.70;99.90;;;;;;4984716;28;20495;-74
2023/03/07 03:35:22;;;;;;;15.85;1.33;;;4.70;99.90;;;;;;4973196;28;20026;-73
2023/03/07 03:37:48;;;;;;;5.47;1.00;;;4.70;99.90;;;;;;4990851;28;20034;-73
2023/03/07 03:40:16;;;;;;;17.15;1.98;;;4.70;99.90;;;;;;4990398;28;20033;-73
2023/03/07 03:42:42;;;;;;;9.73;1.70;;;4.70;99.90;;;;;;4990385;28;20903;-73
2023/03/07 03:45:09;;;;;;;5.30;1.20;;;4.70;99.90;;;;;;4972942;28;20045;-73
2023/03/07 03:47:36;;;;;;;15.75;2.35;;;4.70;99.90;;;;;;4986952;28;20030;-73
2023/03/07 03:50:02;;;;;;;5.93;1.13;;;4.70;99.90;;;;;;4973322;28;20487;-73
2023/03/07 03:52:27;;;;;;;6.25;1.33;;;4.70;99.90;;;;;;4986865;28;20038;-73
2023/03/07 03:54:53;;;;;;;4.07;1.63;;;4.80;99.90;;;;;;4988072;28;20038;-74
2023/03/07 03:57:19;;;;;;;5.60;1.42;;;4.70;99.90;;;;;;4989837;28;20137;-72
2023/03/07 03:59:46;;;;;;;8.82;2.70;;;4.70;99.90;;;;;;4970417;28;20547;-72
2023/03/07 04:02:11;;;;;;;11.68;3.03;;;4.80;99.90;;;;;;4988106;28;20061;-74
2023/03/07 04:04:40;;;;;;;4.30;1.10;;;4.80;99.90;;;;;;4987879;28;20038;-73
2023/03/07 04:07:05;;;;;;;9.65;1.77;;;4.80;99.90;;;;;;4970430;28;20522;-75
2023/03/07 04:09:32;;;;;;;8.00;1.42;;;4.80;99.90;;;;;;4987727;28;20120;-73
2023/03/07 04:11:57;;;;;;;8.25;1.70;;;4.80;99.90;;;;;;4970038;28;20042;-73
2023/03/07 04:14:23;;;;;;;8.88;2.10;;;4.70;99.90;;;;;;4985617;28;20043;-73
2023/03/07 04:16:48;;;;;;;9.93;1.90;;;4.70;99.90;;;;;;4989391;28;20093;-73
2023/03/07 04:19:14;;;;;;;5.65;1.30;;;4.70;99.90;;;;;;4987628;28;20030;-73
2023/03/07 04:21:40;;;;;;;14.07;2.58;;;4.80;99.90;;;;;;4987643;28;20515;-73
2023/03/07 04:24:07;;;;;;;5.47;1.00;;;4.70;99.90;;;;;;4970031;28;20042;-73
2023/03/07 04:26:33;;;;;;;2.90;0.65;;;4.80;99.90;;;;;;4973935;28;20113;-72
2023/03/07 04:28:59;;;;;;;5.30;1.55;;;4.70;99.90;;;;;;4987333;28;20208;-73
2023/03/07 04:31:26;;;;;;;10.07;1.67;;;4.60;99.90;;;;;;4986273;28;20696;-72
2023/03/07 04:33:54;;;;;;;6.45;1.98;;;4.60;99.90;;;;;;4981261;28;20026;-72
2023/03/07 04:36:21;;;;;;;3.45;0.50;;;4.50;99.90;;;;;;4987247;28;20037;-73
2023/03/07 04:38:47;;;;;;;4.70;1.17;;;4.50;99.90;;;;;;4987059;28;20060;-72
2023/03/07 04:41:15;;;;;;;3.88;0.82;;;4.50;99.90;;;;;;4987196;28;20027;-72
2023/03/07 04:43:41;;;;;;;3.63;0.43;;;4.50;99.90;;;;;;4987207;28;20030;-73
2023/03/07 04:46:08;;;;;;;5.38;1.02;;;4.40;99.90;;;;;;4987326;28;20505;-73
2023/03/07 04:48:34;;;;;;;8.75;0.90;;;4.40;99.90;;;;;;4987528;28;20026;-72
2023/03/07 04:50:59;;;;;;;6.68;0.70;;;4.40;99.90;;;;;;4970866;28;20035;-73
2023/03/07 04:53:25;;;;;;;4.07;1.55;;;4.40;99.90;;;;;;4986674;28;20038;-73
2023/03/07 04:55:55;;;;;;;3.75;0.60;;;4.40;99.90;;;;;;4982685;28;20403;-73
2023/03/07 04:58:21;;;;;;;17.77;3.05;;;4.40;99.90;;;;;;4999169;28;20089;-72
2023/03/07 05:00:46;;;;;;;4.63;0.85;;;4.30;99.90;;;;;;4986663;28;20447;-73
2023/03/07 05:03:13;;;;;;;6.55;0.32;;;4.30;99.90;;;;;;4986966;28;20034;-74
2023/03/07 05:05:39;;;;;;;3.75;0.35;;;4.30;99.90;;;;;;4986967;28;20037;-73
2023/03/07 05:08:05;;;;;;;2.75;0.20;;;4.20;99.90;;;;;;4987150;28;20042;-72
2023/03/07 05:10:31;;;;;;;3.88;0.40;;;4.20;99.90;;;;;;4986628;28;20034;-73
2023/03/07 05:12:57;;;;;;;4.50;0.85;;;4.10;99.90;;;;;;4986992;28;20046;-72
2023/03/07 05:15:22;;;;;;;5.47;0.93;;;4.00;99.90;;;;;;4988346;28;20134;-73
2023/03/07 05:17:48;;;;;;;8.38;1.02;;;4.00;99.90;;;;;;4970486;28;20514;-73
2023/03/07 05:20:14;;;;;;;1.08;0.25;;;4.00;99.90;;;;;;4986548;28;20089;-74
2023/03/07 05:22:39;;;;;;;4.43;1.00;;;3.90;99.90;;;;;;4987148;28;20049;-72
2023/03/07 05:25:05;;;;;;;1.58;0.38;;;3.90;99.90;;;;;;4969681;28;20037;-73
2023/03/07 05:27:31;;;;;;;5.72;1.30;;;4.00;99.90;;;;;;4990997;28;20142;-73
2023/03/07 05:29:57;;;;;;;2.33;0.28;;;3.90;99.90;;;;;;4986350;28;20129;-73
2023/03/07 05:32:22;;;;;;;3.05;0.15;;;3.90;99.90;;;;;;4985994;28;20062;-73
2023/03/07 05:34:48;;;;;;;3.30;0.38;;;3.80;99.90;;;;;;4985370;28;20677;-73
2023/03/07 05:37:13;;;;;;;2.08;0.30;;;3.70;99.90;;;;;;4985704;28;20081;-73
2023/03/07 05:39:39;;;;;;;2.72;0.35;;;3.60;99.90;;;;;;4967610;28;20038;-73
2023/03/07 05:42:05;;;;;;;2.97;0.77;;;3.50;99.90;;;;;;4986938;28;20077;-73
2023/03/07 05:44:30;;;;;;;0.75;0.43;;;3.40;99.90;;;;;;4985892;28;20068;-73
2023/03/07 05:46:56;;;;;;;1.25;0.20;;;3.40;99.90;;;;;;4986369;28;20041;-73
2023/03/07 05:49:23;;;;;;;2.65;0.32;;;3.20;99.90;;;;;;4986672;28;20050;-73
2023/03/07 05:51:49;;;;;;;7.20;0.85;;;3.10;99.90;;;;;;4985340;28;20137;-73
2023/03/07 05:54:15;;;;;;;5.25;0.30;;;3.10;99.90;;;;;;4968691;28;20563;-73
2023/03/07 05:56:41;;;;;;;1.92;0.28;;;3.10;99.90;;;;;;4986398;28;20111;-74
2023/03/07 05:59:10;;;;;;;3.28;0.10;;;3.00;99.90;;;;;;4967391;28;20038;-74
2023/03/07 06:01:35;;;;;;;3.28;0.30;;;3.00;99.90;;;;;;4989525;28;20037;-73
2023/03/07 06:04:01;;;;;;;2.83;0.60;;;2.90;99.90;;;;;;4985199;28;20030;-72
2023/03/07 06:06:27;;;;;;;2.40;0.30;;;2.90;99.90;;;;;;4983156;28;20109;-72
2023/03/07 06:08:53;;;;;;;4.75;1.13;;;2.90;99.90;;;;;;4986338;28;20030;-72
2023/03/07 06:11:18;;;;;;;9.65;0.85;;;2.80;99.90;;;;;;4987142;28;20045;-73
2023/03/07 06:13:44;;;;;;;2.85;0.93;;;2.80;99.90;;;;;;4989557;28;20034;-73
2023/03/07 06:16:10;;;;;;;1.92;0.20;;;2.70;99.90;;;;;;4988137;28;20513;-73
2023/03/07 06:18:35;;;;;;;2.25;0.55;;;2.70;99.90;;;;;;4988718;28;20048;-72
2023/03/07 06:21:05;;;;;;;0.95;0.20;;;2.60;99.90;;;;;;4989886;28;20062;-72
2023/03/07 06:23:34;;;;;;;0.60;0.20;;;2.60;99.90;;;;;;4972820;28;20495;-72
2023/03/07 06:26:01;;;;;;;0.95;0.25;;;2.60;99.90;;;;;;4990452;28;20054;-72
2023/03/07 06:28:27;;;;;;;1.50;0.20;;;2.50;99.90;;;;;;4971647;28;20045;-72
2023/03/07 06:30:53;;;;;;;2.85;0.30;;;2.50;99.90;;;;;;4991293;28;20038;-72
2023/03/07 06:33:18;;;;;;;2.95;0.28;;;2.40;99.90;;;;;;4988968;28;20034;-72
2023/03/07 06:35:45;;;;;;;2.35;0.63;;;2.40;99.90;;;;;;4990768;28;20041;-72
2023/03/07 06:38:12;;;;;;;1.50;0.70;;;2.30;99.90;;;;;;4988977;28;20058;-72
2023/03/07 06:40:38;;;;;;;2.63;0.70;;;2.30;99.90;;;;;;4986627;28;20104;-73
2023/03/07 06:43:04;;;;;;;2.22;0.60;;;2.30;99.90;;;;;;4986491;28;20487;-72
2023/03/07 06:45:29;;;;;;;3.63;0.32;;;2.30;99.90;;;;;;4987977;28;20447;-72
2023/03/07 06:47:55;;;;;;;1.15;0.25;;;2.20;99.90;;;;;;4987251;28;20039;-73
2023/03/07 06:50:21;;;;;;;5.60;0.75;;;2.20;99.90;;;;;;4989960;28;20031;-72
2023/03/07 06:52:48;;;;;;;1.83;0.50;;;2.20;99.90;;;;;;4988906;28;20044;-73
2023/03/07 06:55:14;;;;;;;3.75;0.22;;;2.20;99.90;;;;;;4990222;28;20065;-73
2023/03/07 06:57:41;;;;;;;3.22;0.20;;;2.20;99.90;;;;;;4987856;28;20065;-73
2023/03/07 07:00:08;;;;;;;4.93;0.47;;;2.20;99.90;;;;;;4991066;28;20038;-73
2023/03/07 07:02:34;;;;;;;1.02;0.40;;;2.20;99.90;;;;;;4988705;28;20494;-73
2023/03/07 07:04:59;;;;;;;2.58;0.57;;;2.20;99.90;;;;;;4991044;28;20034;-73
2023/03/07 07:07:25;;;;;;;3.70;0.77;;;2.20;99.90;;;;;;4989423;28;20075;-73
2023/03/07 07:09:51;;;;;;;0.77;0.20;;;2.20;99.90;;;;;;4988334;28;20106;-72
2023/03/07 07:12:17;;;;;;;4.97;0.85;;;2.20;99.90;;;;;;4990039;28;20042;-73
2023/03/07 07:14:43;;;;;;;9.05;1.70;;;2.20;99.90;;;;;;4988850;28;20031;-73
2023/03/07 07:17:08;;;;;;;2.20;0.20;;;2.20;99.90;;;;;;4987392;28;20406;-72
2023/03/07 07:19:34;;;;;;;0.75;0.35;;;2.10;99.90;;;;;;4989254;28;20038;-73
2023/03/07 07:22:00;;;;;;;1.75;0.38;;;2.10;99.90;;;;;;4989401;28;20046;-72
2023/03/07 07:24:25;;;;;;;1.48;0.40;;;2.10;99.90;;;;;;4989223;28;20062;-72
2023/03/07 07:26:51;;;;;;;2.75;0.20;;;2.00;99.90;;;;;;4987758;28;20069;-72
2023/03/07 07:29:17;;;;;;;7.65;0.93;;;2.00;99.90;;;;;;4988807;28;20031;-72
2023/03/07 07:31:42;;;;;;;3.85;0.60;;;2.00;99.90;;;;;;4990708;28;20026;-73
2023/03/07 07:34:08;;;;;;;5.78;0.30;;;2.00;99.90;;;;;;4986937;28;20034;-73
2023/03/07 07:36:34;;;;;;;1.88;0.60;;;2.00;99.90;;;;;;4990947;28;20034;-73
2023/03/07 07:39:06;;;;;;;0.90;0.30;;;2.10;99.90;;;;;;4985844;28;20588;-72
2023/03/07 07:41:32;;;;;;;0.82;0.30;;;2.10;99.90;;;;;;4989315;28;20054;-73
2023/03/07 07:43:58;;;;;;;1.65;0.32;;;2.20;99.90;;;;;;4976014;28;20056;-73
2023/03/07 07:46:24;;;;;;;3.30;0.65;;;2.20;99.90;;;;;;4976759;28;20513;-72
2023/03/07 07:48:49;;;;;;;1.42;0.68;;;2.30;99.90;;;;;;4968879;28;20436;-73
2023/03/07 07:51:15;;;;;;;2.15;0.30;;;2.30;99.90;;;;;;4988108;28;20117;-73
2023/03/07 07:53:41;;;;;;;1.02;0.20;;;2.30;99.90;;;;;;4992229;28;20478;-74
2023/03/07 07:56:07;;;;;;;2.05;0.50;;;2.30;99.90;;;;;;4991723;28;20034;-74
2023/03/07 07:58:33;;;;;;;4.88;1.00;;;2.40;99.90;;;;;;5000914;28;20042;-73
2023/03/07 08:00:59;;;;;;;3.45;0.35;;;2.40;99.90;;;;;;4970994;28;20407;-73
2023/03/07 08:03:24;;;;;;;1.30;0.32;;;2.50;99.90;;;;;;4969773;28;20675;-73
2023/03/07 08:05:50;;;;;;;4.57;0.82;;;2.50;99.90;;;;;;4992603;28;20068;-73
2023/03/07 08:08:18;;;;;;;4.60;0.40;;;2.60;99.90;;;;;;4973116;28;20118;-73
2023/03/07 08:10:47;;;;;;;1.52;0.50;;;2.60;99.90;;;;;;4991402;28;20030;-73
2023/03/07 08:13:14;;;;;;;0.95;0.35;;;2.60;99.90;;;;;;4988288;28;20053;-73
2023/03/07 08:15:40;;;;;;;1.70;0.45;;;2.60;99.90;;;;;;4994175;28;20042;-73
2023/03/07 08:18:06;;;;;;;1.67;0.35;;;2.70;99.90;;;;;;4992726;28;20097;-73
2023/03/07 08:20:32;;;;;;;2.80;0.77;;;2.70;99.90;;;;;;4975859;28;20038;-73
2023/03/07 08:22:58;;;;;;;3.83;0.55;;;2.70;99.90;;;;;;4970584;28;20034;-72
2023/03/07 08:25:24;;;;;;;3.53;0.60;;;2.70;99.90;;;;;;4970202;28;20038;-73
2023/03/07 08:27:53;;;;;;;1.80;0.45;;;2.70;99.90;;;;;;4989375;28;20037;-72
2023/03/07 08:30:24;;;;;;;3.63;0.95;;;2.80;99.90;;;;;;4986493;28;20458;-73
2023/03/07 08:32:50;;;;;;;4.80;0.73;;;2.80;99.90;;;;;;4984830;28;20042;-73
2023/03/07 08:35:17;;;;;;;2.50;1.30;;;2.80;99.90;;;;;;4970254;28;20161;-73
2023/03/07 08:37:42;;;;;;;3.40;1.00;;;2.80;99.90;;;;;;4985139;28;20033;-72
2023/03/07 08:40:08;;;;;;;2.78;0.88;;;2.90;99.90;;;;;;4969233;28;20072;-73
2023/03/07 08:42:34;;;;;;;3.95;0.93;;;2.90;99.90;;;;;;4968567;28;20038;-73
2023/03/07 08:45:00;;;;;;;1.90;1.00;;;2.90;99.90;;;;;;4970122;28;20400;-74
2023/03/07 08:47:25;;;;;;;1.67;0.63;;;3.00;99.90;;;;;;4987115;28;20038;-73
2023/03/07 08:49:51;;;;;;;3.35;0.80;;;3.00;99.90;;;;;;4987040;28;20149;-72
2023/03/07 08:52:24;;;;;;;3.38;0.40;;;3.10;99.90;;;;;;5038281;28;20955;-74
2023/03/07 08:54:49;;;;;;;2.97;0.85;;;3.10;99.90;;;;;;5019051;28;20652;-74
2023/03/07 08:57:15;;;;;;;1.23;0.47;;;3.10;99.90;;;;;;5006058;28;20077;-72
2023/03/07 08:59:40;;;;;;;5.25;0.90;;;3.10;99.90;;;;;;5007258;28;20026;-72
2023/03/07 09:02:08;;;;;;;3.38;0.60;;;3.20;99.90;;;;;;5010023;28;20041;-72
2023/03/07 09:04:33;;;;;;;2.47;0.38;;;3.30;99.90;;;;;;5005888;28;20108;-72
2023/03/07 09:06:59;;;;;;;3.30;0.68;;;3.30;99.90;;;;;;5007349;28;20065;-71
2023/03/07 09:09:27;;;;;;;4.20;0.55;;;3.30;99.90;;;;;;5008914;28;20046;-72
2023/03/07 09:11:53;;;;;;;7.00;1.30;;;3.40;99.90;;;;;;5006709;28;20448;-72
2023/03/07 09:14:18;;;;;;;1.70;0.70;;;3.40;99.90;;;;;;5009037;28;20437;-72
2023/03/07 09:16:44;;;;;;;4.90;0.50;;;3.50;99.90;;;;;;5003110;28;20053;-72
2023/03/07 09:19:10;;;;;;;3.55;0.93;;;3.50;99.90;;;;;;5006766;28;20397;-70
2023/03/07 09:21:35;;;;;;;4.88;0.55;;;3.60;99.90;;;;;;5005203;28;20030;-73
2023/03/07 09:24:01;;;;;;;4.40;0.60;;;3.60;99.90;;;;;;5040159;28;20045;-72
2023/03/07 09:26:26;;;;;;;2.63;0.70;;;3.60;99.90;;;;;;5006141;28;23040;-72
2023/03/07 09:28:52;;;;;;;2.03;0.70;;;3.70;99.90;;;;;;5000889;28;20038;-72
2023/03/07 09:31:18;;;;;;;6.35;0.95;;;3.70;99.90;;;;;;5001899;28;20042;-72
2023/03/07 09:33:43;;;;;;;0.90;0.40;;;3.70;99.90;;;;;;5000258;28;20180;-71
2023/03/07 09:36:12;;;;;;;4.40;0.52;;;3.80;99.90;;;;;;5004061;28;20120;-72
2023/03/07 09:38:38;;;;;;;4.68;0.80;;;3.80;99.90;;;;;;5000268;28;20033;-72
2023/03/07 09:41:19;;;;;;;2.08;0.93;;;3.90;99.90;;;;;;5002354;28;20038;-72
2023/03/07 09:43:58;;;;;;;0.68;0.30;;;4.00;99.90;;;;;;4998028;28;20049;-72
2023/03/07 09:46:39;;;;;;;1.00;0.63;;;4.10;99.90;;;;;;4998418;28;20500;-71
2023/03/07 09:49:11;;;;;;;3.00;0.50;;;4.20;99.90;;;;;;4999139;28;20133;-71
2023/03/07 09:51:41;;;;;;;2.22;0.70;;;4.30;99.90;;;;;;5032970;28;20129;-72
2023/03/07 09:54:20;;;;;;;2.00;0.50;;;4.40;99.90;;;;;;5002860;28;20045;-72
2023/03/07 09:56:53;;;;;;;2.30;0.88;;;4.40;99.90;;;;;;4995283;28;20360;-72
2023/03/07 09:59:32;;;;;;;3.63;1.13;;;4.50;99.90;;;;;;5001048;28;20038;-72
2023/03/07 10:02:21;;;;;;;5.07;1.00;;;4.60;99.90;;;;;;4996972;28;20404;-71
2023/03/07 10:05:28;;;;;;;2.13;1.08;;;4.60;99.90;;;;;;4988197;28;20527;-72
2023/03/07 10:07:54;;;;;;;3.63;0.85;;;4.70;99.90;;;;;;4985714;28;20109;-72
2023/03/07 10:10:23;;;;;;;5.03;1.00;;;4.70;99.90;;;;;;4986840;28;20038;-71
2023/03/07 10:13:03;;;;;;;2.05;0.80;;;4.70;99.90;;;;;;4987736;28;20110;-72
2023/03/07 10:15:38;;;;;;;7.70;1.10;;;4.70;99.90;;;;;;4986174;28;20030;-72
2023/03/07 10:18:22;;;;;;;2.08;0.60;;;4.60;99.90;;;;;;4986889;28;20038;-71
2023/03/07 10:21:06;;;;;;;1.73;0.77;;;4.60;99.90;;;;;;4983543;28;20031;-71
2023/03/07 10:23:42;;;;;;;2.17;1.30;;;4.70;99.90;;;;;;4984930;28;20038;-71
2023/03/07 10:26:43;;;;;;;4.03;0.80;;;4.70;99.90;;;;;;4987347;28;20033;-71
2023/03/07 10:29:25;;;;;;;6.72;1.23;;;4.80;99.90;;;;;;4982271;28;20040;-71
2023/03/07 10:31:55;;;;;;;3.20;0.63;;;4.90;99.90;;;;;;4984619;28;20061;-71
2023/03/07 10:34:29;;;;;;;3.05;0.77;;;4.90;99.90;;;;;;4985461;28;20129;-71
2023/03/07 10:37:17;;;;;;;1.55;0.77;;;5.00;99.90;;;;;;4988298;28;20035;-71
2023/03/07 10:39:54;;;;;;;6.15;0.80;;;5.00;99.90;;;;;;4982636;28;20042;-70
2023/03/07 10:42:22;;;;;;;3.58;0.50;;;4.90;99.90;;;;;;4988723;28;20168;-71
2023/03/07 10:44:49;;;;;;;1.95;0.10;;;4.80;99.90;;;;;;4988474;28;20148;-71
2023/03/07 10:47:24;;;;;;;3.65;0.45;;;4.60;99.90;;;;;;4988917;28;20168;-72
2023/03/07 10:49:56;;;;;;;4.15;0.17;;;4.40;99.90;;;;;;4985257;28;20034;-71
2023/03/07 10:52:31;;;;;;;1.40;0.32;;;4.10;99.90;;;;;;4986253;28;20046;-71
2023/03/07 10:55:35;;;;;;;2.22;0.15;;;3.90;99.90;;;;;;4989954;28;20046;-71
2023/03/07 10:58:23;;;;;;;6.45;0.85;;;3.90;99.90;;;;;;4991917;28;20034;-71
2023/03/07 11:01:07;;;;;;;2.55;0.50;;;3.90;99.90;;;;;;4986936;28;20035;-71
2023/03/07 11:03:58;;;;;;;3.67;0.10;;;4.00;99.90;;;;;;4983385;28;20038;-71
2023/03/07 11:06:37;;;;;;;7.07;0.38;;;4.10;99.90;;;;;;4985488;28;20122;-71
2023/03/07 11:09:17;;;;;;;2.65;0.30;;;4.10;99.90;;;;;;4983203;28;20806;-71
2023/03/07 11:12:16;;;;;;;1.05;0.10;;;4.30;99.90;;;;;;4989543;28;20062;-71
2023/03/07 11:15:17;;;;;;;2.33;0.52;;;4.30;99.90;;;;;;4985390;28;20045;-71
2023/03/07 11:17:49;;;;;;;3.72;0.80;;;4.30;99.90;;;;;;4980929;28;20527;-72
2023/03/07 11:20:47;;;;;;;1.17;0.17;;;4.20;99.90;;;;;;4983530;28;20128;-70
2023/03/07 11:23:18;;;;;;;2.13;0.30;;;4.10;99.90;;;;;;4984341;28;20100;-70
2023/03/07 11:25:44;;;;;;;4.60;0.28;;;4.20;99.90;;;;;;4984779;28;20129;-70
2023/03/07 11:28:33;;;;;;;1.05;0.60;;;4.20;99.90;;;;;;4987998;28;20121;-71
2023/03/07 11:31:30;;;;;;;1.50;0.68;;;4.20;99.90;;;;;;4983854;28;20475;-71
2023/03/07 11:34:27;;;;;;;2.40;0.40;;;4.30;99.90;;;;;;4986976;28;20104;-70
2023/03/07 11:37:06;;;;;;;3.92;0.70;;;4.40;99.90;;;;;;5014394;28;20342;-70
2023/03/07 11:39:52;;;;;;;3.22;0.47;;;4.50;99.90;;;;;;4979500;28;20400;-71
2023/03/07 11:42:31;;;;;;;3.20;0.20;;;4.60;99.90;;;;;;4980995;28;20049;-71
2023/03/07 11:45:20;;;;;;;7.70;0.22;;;4.60;99.90;;;;;;4983395;28;20117;-71
2023/03/07 11:48:14;;;;;;;3.72;0.35;;;4.60;99.90;;;;;;4983237;28;20443;-71
2023/03/07 11:50:47;;;;;;;2.35;0.10;;;4.60;99.90;;;;;;4980095;28;20053;-70
2023/03/07 11:53:29;;;;;;;5.05;0.95;;;4.70;99.90;;;;;;4980623;28;20096;-72
2023/03/07 11:56:18;;;;;;;6.22;0.20;;;4.60;99.90;;;;;;5009856;28;20496;-71
2023/03/07 11:58:54;;;;;;;2.70;0.30;;;4.60;99.90;;;;;;4981839;28;20254;-71
2023/03/07 12:01:46;;;;;;;1.38;0.13;;;4.50;99.90;;;;;;4983039;28;20308;-71
2023/03/07 12:04:26;;;;;;;3.65;0.10;;;4.30;99.90;;;;;;5012917;28;20066;-71
2023/03/07 12:07:21;;;;;;;4.03;0.50;;;3.90;99.90;;;;;;4981612;28;20046;-71
2023/03/07 12:10:03;;;;;;;6.18;0.55;;;3.50;99.90;;;;;;4981683;28;20046;-71
2023/03/07 12:12:48;;;;;;;2.20;0.40;;;3.40;99.90;;;;;;5018094;28;20508;-71
2023/03/07 12:15:25;;;;;;;2.33;0.22;;;3.20;99.90;;;;;;4984545;28;20133;-71
2023/03/07 12:18:25;;;;;;;1.90;0.17;;;3.10;99.90;;;;;;4985250;28;20034;-71
2023/03/07 12:21:11;;;;;;;2.47;0.25;;;3.00;99.90;;;;;;4985205;28;20042;-71
2023/03/07 12:24:00;;;;;;;2.90;0.20;;;2.90;99.90;;;;;;4992073;28;20459;-72
2023/03/07 12:26:54;;;;;;;0.47;0.10;;;2.80;99.90;;;;;;4991525;28;20040;-71
2023/03/07 12:29:43;;;;;;;5.68;0.20;;;2.80;99.90;;;;;;4985383;28;20297;-72
2023/03/07 12:32:23;;;;;;;2.38;0.20;;;2.80;99.90;;;;;;4986571;28;20091;-72
2023/03/07 12:35:03;;;;;;;2.97;0.43;;;2.90;99.90;;;;;;4985822;28;20471;-72
2023/03/07 12:37:38;;;;;;;5.80;0.30;;;2.90;99.90;;;;;;4985859;28;20034;-71
2023/03/07 12:40:38;;;;;;;0.45;0.10;;;2.90;99.90;;;;;;4984447;28;20100;-71
2023/03/07 12:43:15;;;;;;;5.80;0.47;;;3.00;99.90;;;;;;4970675;28;20031;-71
2023/03/07 12:45:49;;;;;;;1.15;0.13;;;3.10;99.90;;;;;;4984407;28;20121;-71
2023/03/07 12:48:53;;;;;;;1.33;0.10;;;3.20;99.90;;;;;;4983042;28;20404;-72
2023/03/07 12:51:31;;;;;;;3.53;0.30;;;3.30;99.90;;;;;;4980500;28;20479;-71
2023/03/07 12:54:11;;;;;;;2.47;0.57;;;3.40;99.90;;;;;;4984722;28;20038;-71
2023/03/07 12:57:02;;;;;;;0.80;0.20;;;3.50;99.90;;;;;;4982962;28;20819;-72
2023/03/07 12:59:30;;;;;;;2.28;0.50;;;3.60;99.90;;;;;;4983438;28;20042;-71
2023/03/07 13:02:09;;;;;;;0.63;0.40;;;3.60;99.90;;;;;;4982743;28;20056;-71
2023/03/07 13:04:35;;;;;;;2.67;0.10;;;3.70;99.90;;;;;;4985861;28;20037;-72
2023/03/07 13:07:24;;;;;;;2.20;0.63;;;3.70;99.90;;;;;;4982128;28;20035;-72
2023/03/07 13:09:52;;;;;;;0.63;0.20;;;3.70;99.90;;;;;;5015685;28;20057;-72
2023/03/07 13:12:28;;;;;;;0.20;0.20;;;3.70;99.90;;;;;;4983475;28;20046;-72
2023/03/07 13:14:59;;;;;;;2.63;0.10;;;3.70;99.90;;;;;;4980619;28;20070;-71